sensor_id;sensor_type;location;lat;lon;timestamp;P1;durP1;ratioP1;P2;durP2;ratioP2
15142;SDS011;7672;50.834;6.286;2022-12-29T00:00:03;0.70;;;0.70;;
15142;SDS011;7672;50.834;6.286;2022-12-29T00:02:32;0.80;;;0.80;;
15142;SDS011;7672;50.834;6.286;2022-12-29T00:04:59;0.70;;;0.70;;
15142;SDS011;7672;50.834;6.286;2022-12-29T00:07:26;0.60;;;0.60;;
15142;SDS011;7672;50.834;6.286;2022-12-29T00:09:52;0.77;;;0.77;;
15142;SDS011;7672;50.834;6.286;2022-12-29T00:12:19;0.80;;;0.80;;
15142;SDS011;7672;50.834;6.286;2022-12-29T00:14:46;0.87;;;0.87;;
15142;SDS011;7672;50.834;6.286;2022-12-29T00:17:45;1.13;;;0.80;;
15142;SDS011;7672;50.834;6.286;2022-12-29T00:20:11;0.70;;;0.70;;
15142;SDS011;7672;50.834;6.286;2022-12-29T00:22:57;0.80;;;0.80;;
15142;SDS011;7672;50.834;6.286;2022-12-29T00:25:43;0.50;;;0.50;;
15142;SDS011;7672;50.834;6.286;2022-12-29T00:28:33;0.70;;;0.70;;
15142;SDS011;7672;50.834;6.286;2022-12-29T00:31:18;0.67;;;0.67;;
15142;SDS011;7672;50.834;6.286;2022-12-29T00:34:04;1.13;;;0.83;;
15142;SDS011;7672;50.834;6.286;2022-12-29T00:36:52;2.57;;;0.60;;
15142;SDS011;7672;50.834;6.286;2022-12-29T00:39:19;0.50;;;0.50;;
15142;SDS011;7672;50.834;6.286;2022-12-29T00:42:04;1.07;;;0.50;;
15142;SDS011;7672;50.834;6.286;2022-12-29T00:44:52;0.60;;;0.50;;
15142;SDS011;7672;50.834;6.286;2022-12-29T00:47:19;0.80;;;0.67;;
15142;SDS011;7672;50.834;6.286;2022-12-29T00:49:46;0.50;;;0.50;;
15142;SDS011;7672;50.834;6.286;2022-12-29T00:52:13;0.87;;;0.60;;
15142;SDS011;7672;50.834;6.286;2022-12-29T00:54:40;0.67;;;0.63;;
15142;SDS011;7672;50.834;6.286;2022-12-29T00:57:08;1.27;;;0.90;;
15142;SDS011;7672;50.834;6.286;2022-12-29T00:59:36;0.60;;;0.60;;
15142;SDS011;7672;50.834;6.286;2022-12-29T01:02:05;1.73;;;0.70;;
15142;SDS011;7672;50.834;6.286;2022-12-29T01:04:34;0.90;;;0.70;;
15142;SDS011;7672;50.834;6.286;2022-12-29T01:07:01;1.03;;;0.70;;
15142;SDS011;7672;50.834;6.286;2022-12-29T01:09:27;0.80;;;0.60;;
15142;SDS011;7672;50.834;6.286;2022-12-29T01:12:13;0.70;;;0.70;;
15142;SDS011;7672;50.834;6.286;2022-12-29T01:14:40;2.00;;;0.80;;
15142;SDS011;7672;50.834;6.286;2022-12-29T01:17:06;0.60;;;0.60;;
15142;SDS011;7672;50.834;6.286;2022-12-29T01:19:34;1.07;;;0.73;;
15142;SDS011;7672;50.834;6.286;2022-12-29T01:22:00;1.10;;;0.80;;
15142;SDS011;7672;50.834;6.286;2022-12-29T01:24:27;1.30;;;0.70;;
15142;SDS011;7672;50.834;6.286;2022-12-29T01:26:54;2.20;;;0.90;;
15142;SDS011;7672;50.834;6.286;2022-12-29T01:29:21;1.50;;;0.80;;
15142;SDS011;7672;50.834;6.286;2022-12-29T01:31:48;2.40;;;0.80;;
15142;SDS011;7672;50.834;6.286;2022-12-29T01:34:16;1.57;;;0.90;;
15142;SDS011;7672;50.834;6.286;2022-12-29T01:36:44;1.10;;;1.00;;
15142;SDS011;7672;50.834;6.286;2022-12-29T01:39:10;0.97;;;0.90;;
15142;SDS011;7672;50.834;6.286;2022-12-29T01:41:39;1.37;;;0.90;;
15142;SDS011;7672;50.834;6.286;2022-12-29T02:09:54;2.47;;;1.13;;
15142;SDS011;7672;50.834;6.286;2022-12-29T02:31:02;0.70;;;0.70;;
15142;SDS011;7672;50.834;6.286;2022-12-29T02:44:11;1.33;;;0.63;;
15142;SDS011;7672;50.834;6.286;2022-12-29T02:47:39;1.33;;;0.80;;
15142;SDS011;7672;50.834;6.286;2022-12-29T02:52:50;1.47;;;0.80;;
15142;SDS011;7672;50.834;6.286;2022-12-29T02:55:27;3.33;;;0.80;;
15142;SDS011;7672;50.834;6.286;2022-12-29T03:13:28;0.83;;;0.70;;
15142;SDS011;7672;50.834;6.286;2022-12-29T03:16:46;0.63;;;0.63;;
15142;SDS011;7672;50.834;6.286;2022-12-29T03:19:27;0.97;;;0.80;;
15142;SDS011;7672;50.834;6.286;2022-12-29T03:22:05;0.60;;;0.60;;
15142;SDS011;7672;50.834;6.286;2022-12-29T03:24:58;0.70;;;0.70;;
15142;SDS011;7672;50.834;6.286;2022-12-29T03:27:36;1.07;;;0.93;;
15142;SDS011;7672;50.834;6.286;2022-12-29T03:30:10;0.70;;;0.70;;
15142;SDS011;7672;50.834;6.286;2022-12-29T03:32:44;1.43;;;0.80;;
15142;SDS011;7672;50.834;6.286;2022-12-29T03:35:17;5.20;;;0.70;;
15142;SDS011;7672;50.834;6.286;2022-12-29T03:37:55;0.87;;;0.83;;
15142;SDS011;7672;50.834;6.286;2022-12-29T03:40:32;1.70;;;0.83;;
15142;SDS011;7672;50.834;6.286;2022-12-29T03:43:01;1.37;;;0.97;;
15142;SDS011;7672;50.834;6.286;2022-12-29T03:45:30;2.43;;;0.80;;
15142;SDS011;7672;50.834;6.286;2022-12-29T03:47:57;1.57;;;0.80;;
15142;SDS011;7672;50.834;6.286;2022-12-29T03:50:24;1.30;;;1.17;;
15142;SDS011;7672;50.834;6.286;2022-12-29T03:52:50;1.17;;;0.73;;
15142;SDS011;7672;50.834;6.286;2022-12-29T03:55:17;1.50;;;0.93;;
15142;SDS011;7672;50.834;6.286;2022-12-29T03:57:44;0.70;;;0.70;;
15142;SDS011;7672;50.834;6.286;2022-12-29T04:00:11;4.03;;;1.20;;
15142;SDS011;7672;50.834;6.286;2022-12-29T04:02:39;3.57;;;1.20;;
15142;SDS011;7672;50.834;6.286;2022-12-29T04:05:06;1.20;;;1.00;;
15142;SDS011;7672;50.834;6.286;2022-12-29T04:07:34;0.93;;;0.70;;
15142;SDS011;7672;50.834;6.286;2022-12-29T04:10:01;0.80;;;0.80;;
15142;SDS011;7672;50.834;6.286;2022-12-29T04:12:29;1.47;;;0.80;;
15142;SDS011;7672;50.834;6.286;2022-12-29T04:14:55;0.93;;;0.73;;
15142;SDS011;7672;50.834;6.286;2022-12-29T04:17:22;0.60;;;0.60;;
15142;SDS011;7672;50.834;6.286;2022-12-29T04:19:49;0.97;;;0.83;;
15142;SDS011;7672;50.834;6.286;2022-12-29T04:22:17;0.60;;;0.60;;
15142;SDS011;7672;50.834;6.286;2022-12-29T04:24:44;1.13;;;0.90;;
15142;SDS011;7672;50.834;6.286;2022-12-29T04:27:10;2.63;;;1.00;;
15142;SDS011;7672;50.834;6.286;2022-12-29T04:29:37;2.40;;;0.67;;
15142;SDS011;7672;50.834;6.286;2022-12-29T04:32:04;3.80;;;0.90;;
15142;SDS011;7672;50.834;6.286;2022-12-29T04:34:31;2.23;;;0.73;;
15142;SDS011;7672;50.834;6.286;2022-12-29T04:36:57;3.60;;;0.97;;
15142;SDS011;7672;50.834;6.286;2022-12-29T04:39:24;2.00;;;1.00;;
15142;SDS011;7672;50.834;6.286;2022-12-29T04:41:51;2.00;;;1.10;;
15142;SDS011;7672;50.834;6.286;2022-12-29T04:44:17;1.00;;;0.77;;
15142;SDS011;7672;50.834;6.286;2022-12-29T04:46:44;3.33;;;0.97;;
15142;SDS011;7672;50.834;6.286;2022-12-29T04:49:11;0.97;;;0.80;;
15142;SDS011;7672;50.834;6.286;2022-12-29T04:51:39;0.80;;;0.70;;
15142;SDS011;7672;50.834;6.286;2022-12-29T04:54:06;2.03;;;1.10;;
15142;SDS011;7672;50.834;6.286;2022-12-29T04:56:32;1.77;;;0.80;;
15142;SDS011;7672;50.834;6.286;2022-12-29T04:58:59;2.30;;;0.80;;
15142;SDS011;7672;50.834;6.286;2022-12-29T05:01:26;2.23;;;0.97;;
15142;SDS011;7672;50.834;6.286;2022-12-29T05:03:53;1.20;;;0.80;;
15142;SDS011;7672;50.834;6.286;2022-12-29T05:06:19;1.83;;;0.80;;
15142;SDS011;7672;50.834;6.286;2022-12-29T05:08:46;0.50;;;0.50;;
15142;SDS011;7672;50.834;6.286;2022-12-29T05:11:13;1.57;;;0.77;;
15142;SDS011;7672;50.834;6.286;2022-12-29T05:13:40;0.73;;;0.73;;
15142;SDS011;7672;50.834;6.286;2022-12-29T05:16:07;1.07;;;0.80;;
15142;SDS011;7672;50.834;6.286;2022-12-29T05:18:34;1.27;;;0.80;;
15142;SDS011;7672;50.834;6.286;2022-12-29T05:21:00;1.93;;;0.80;;
15142;SDS011;7672;50.834;6.286;2022-12-29T05:23:27;3.03;;;0.80;;
15142;SDS011;7672;50.834;6.286;2022-12-29T05:25:54;2.07;;;0.93;;
15142;SDS011;7672;50.834;6.286;2022-12-29T05:28:21;0.93;;;0.70;;
15142;SDS011;7672;50.834;6.286;2022-12-29T05:30:49;1.60;;;0.90;;
15142;SDS011;7672;50.834;6.286;2022-12-29T05:33:17;1.43;;;0.80;;
15142;SDS011;7672;50.834;6.286;2022-12-29T05:35:45;2.00;;;1.10;;
15142;SDS011;7672;50.834;6.286;2022-12-29T05:38:12;1.97;;;0.80;;
15142;SDS011;7672;50.834;6.286;2022-12-29T05:40:39;1.50;;;0.90;;
15142;SDS011;7672;50.834;6.286;2022-12-29T05:43:06;2.93;;;0.87;;
15142;SDS011;7672;50.834;6.286;2022-12-29T05:45:33;1.73;;;0.70;;
15142;SDS011;7672;50.834;6.286;2022-12-29T05:47:59;1.57;;;0.90;;
15142;SDS011;7672;50.834;6.286;2022-12-29T05:50:26;2.53;;;0.80;;
15142;SDS011;7672;50.834;6.286;2022-12-29T05:52:53;1.60;;;0.77;;
15142;SDS011;7672;50.834;6.286;2022-12-29T05:55:20;2.00;;;0.90;;
15142;SDS011;7672;50.834;6.286;2022-12-29T05:57:47;1.73;;;1.10;;
15142;SDS011;7672;50.834;6.286;2022-12-29T06:00:14;2.23;;;0.90;;
15142;SDS011;7672;50.834;6.286;2022-12-29T06:02:41;1.77;;;1.10;;
15142;SDS011;7672;50.834;6.286;2022-12-29T06:05:08;1.43;;;0.90;;
15142;SDS011;7672;50.834;6.286;2022-12-29T06:07:35;1.43;;;1.10;;
15142;SDS011;7672;50.834;6.286;2022-12-29T06:10:03;1.27;;;0.73;;
15142;SDS011;7672;50.834;6.286;2022-12-29T06:12:31;2.10;;;0.83;;
15142;SDS011;7672;50.834;6.286;2022-12-29T06:14:58;1.87;;;1.20;;
15142;SDS011;7672;50.834;6.286;2022-12-29T06:17:25;3.53;;;0.90;;
15142;SDS011;7672;50.834;6.286;2022-12-29T06:19:52;2.17;;;1.10;;
15142;SDS011;7672;50.834;6.286;2022-12-29T06:22:18;1.83;;;0.90;;
15142;SDS011;7672;50.834;6.286;2022-12-29T06:24:45;2.67;;;0.90;;
15142;SDS011;7672;50.834;6.286;2022-12-29T06:27:12;1.63;;;0.70;;
15142;SDS011;7672;50.834;6.286;2022-12-29T06:29:39;1.03;;;0.77;;
15142;SDS011;7672;50.834;6.286;2022-12-29T06:32:06;2.43;;;0.97;;
15142;SDS011;7672;50.834;6.286;2022-12-29T06:34:33;1.93;;;0.83;;
15142;SDS011;7672;50.834;6.286;2022-12-29T06:37:00;3.10;;;1.00;;
15142;SDS011;7672;50.834;6.286;2022-12-29T06:39:27;2.43;;;0.87;;
15142;SDS011;7672;50.834;6.286;2022-12-29T06:41:54;2.57;;;0.90;;
15142;SDS011;7672;50.834;6.286;2022-12-29T06:44:21;2.43;;;0.90;;
15142;SDS011;7672;50.834;6.286;2022-12-29T06:46:49;1.63;;;0.97;;
15142;SDS011;7672;50.834;6.286;2022-12-29T06:49:16;1.40;;;0.87;;
15142;SDS011;7672;50.834;6.286;2022-12-29T06:51:44;1.00;;;0.80;;
15142;SDS011;7672;50.834;6.286;2022-12-29T06:54:11;1.60;;;0.80;;
15142;SDS011;7672;50.834;6.286;2022-12-29T06:56:39;2.00;;;0.80;;
15142;SDS011;7672;50.834;6.286;2022-12-29T06:59:06;1.33;;;0.80;;
15142;SDS011;7672;50.834;6.286;2022-12-29T07:01:33;3.77;;;0.90;;
15142;SDS011;7672;50.834;6.286;2022-12-29T07:04:02;2.97;;;1.17;;
15142;SDS011;7672;50.834;6.286;2022-12-29T07:06:29;1.83;;;0.73;;
15142;SDS011;7672;50.834;6.286;2022-12-29T07:08:56;2.40;;;1.10;;
15142;SDS011;7672;50.834;6.286;2022-12-29T07:11:23;2.93;;;1.00;;
15142;SDS011;7672;50.834;6.286;2022-12-29T07:13:50;2.00;;;0.70;;
15142;SDS011;7672;50.834;6.286;2022-12-29T07:16:17;1.53;;;0.90;;
15142;SDS011;7672;50.834;6.286;2022-12-29T07:18:45;1.70;;;1.10;;
15142;SDS011;7672;50.834;6.286;2022-12-29T07:21:11;0.97;;;0.70;;
15142;SDS011;7672;50.834;6.286;2022-12-29T07:23:38;2.87;;;1.10;;
15142;SDS011;7672;50.834;6.286;2022-12-29T07:26:06;3.33;;;1.10;;
15142;SDS011;7672;50.834;6.286;2022-12-29T07:28:37;1.90;;;1.00;;
15142;SDS011;7672;50.834;6.286;2022-12-29T07:31:04;4.20;;;1.20;;
15142;SDS011;7672;50.834;6.286;2022-12-29T07:33:32;2.73;;;1.00;;
15142;SDS011;7672;50.834;6.286;2022-12-29T07:36:03;2.10;;;1.07;;
15142;SDS011;7672;50.834;6.286;2022-12-29T07:38:31;3.23;;;1.27;;
15142;SDS011;7672;50.834;6.286;2022-12-29T07:40:58;1.53;;;0.90;;
15142;SDS011;7672;50.834;6.286;2022-12-29T07:43:25;3.30;;;1.20;;
15142;SDS011;7672;50.834;6.286;2022-12-29T07:45:52;2.77;;;1.30;;
15142;SDS011;7672;50.834;6.286;2022-12-29T07:48:19;5.20;;;2.00;;
15142;SDS011;7672;50.834;6.286;2022-12-29T07:50:46;2.40;;;1.00;;
15142;SDS011;7672;50.834;6.286;2022-12-29T07:53:13;4.27;;;1.30;;
15142;SDS011;7672;50.834;6.286;2022-12-29T07:55:40;4.87;;;1.10;;
15142;SDS011;7672;50.834;6.286;2022-12-29T07:58:11;5.20;;;1.43;;
15142;SDS011;7672;50.834;6.286;2022-12-29T08:00:38;1.53;;;0.93;;
15142;SDS011;7672;50.834;6.286;2022-12-29T08:03:08;4.43;;;1.10;;
15142;SDS011;7672;50.834;6.286;2022-12-29T08:05:35;3.47;;;1.40;;
15142;SDS011;7672;50.834;6.286;2022-12-29T08:08:02;5.67;;;1.33;;
15142;SDS011;7672;50.834;6.286;2022-12-29T08:10:29;6.10;;;1.63;;
15142;SDS011;7672;50.834;6.286;2022-12-29T08:12:56;5.63;;;1.40;;
15142;SDS011;7672;50.834;6.286;2022-12-29T08:15:24;3.20;;;1.40;;
15142;SDS011;7672;50.834;6.286;2022-12-29T08:17:57;6.43;;;1.70;;
15142;SDS011;7672;50.834;6.286;2022-12-29T08:20:24;4.97;;;1.30;;
15142;SDS011;7672;50.834;6.286;2022-12-29T08:22:51;2.37;;;1.20;;
15142;SDS011;7672;50.834;6.286;2022-12-29T08:25:21;5.90;;;1.70;;
15142;SDS011;7672;50.834;6.286;2022-12-29T08:27:53;6.57;;;1.50;;
15142;SDS011;7672;50.834;6.286;2022-12-29T08:30:26;3.07;;;1.33;;
15142;SDS011;7672;50.834;6.286;2022-12-29T08:32:57;3.97;;;1.40;;
15142;SDS011;7672;50.834;6.286;2022-12-29T08:35:23;3.57;;;1.13;;
15142;SDS011;7672;50.834;6.286;2022-12-29T08:37:50;3.17;;;1.20;;
15142;SDS011;7672;50.834;6.286;2022-12-29T08:40:17;3.13;;;1.30;;
15142;SDS011;7672;50.834;6.286;2022-12-29T08:42:44;3.27;;;1.20;;
15142;SDS011;7672;50.834;6.286;2022-12-29T08:45:11;3.10;;;1.30;;
15142;SDS011;7672;50.834;6.286;2022-12-29T08:47:38;6.67;;;1.73;;
15142;SDS011;7672;50.834;6.286;2022-12-29T08:50:05;4.03;;;1.20;;
15142;SDS011;7672;50.834;6.286;2022-12-29T08:52:32;3.87;;;1.60;;
15142;SDS011;7672;50.834;6.286;2022-12-29T08:54:59;3.97;;;1.40;;
15142;SDS011;7672;50.834;6.286;2022-12-29T08:57:43;3.70;;;1.50;;
15142;SDS011;7672;50.834;6.286;2022-12-29T09:00:10;4.00;;;1.23;;
15142;SDS011;7672;50.834;6.286;2022-12-29T09:02:55;6.93;;;1.57;;
15142;SDS011;7672;50.834;6.286;2022-12-29T09:05:30;5.90;;;1.53;;
15142;SDS011;7672;50.834;6.286;2022-12-29T09:08:15;7.30;;;2.03;;
15142;SDS011;7672;50.834;6.286;2022-12-29T09:10:53;5.63;;;1.73;;
15142;SDS011;7672;50.834;6.286;2022-12-29T09:13:23;4.70;;;1.67;;
15142;SDS011;7672;50.834;6.286;2022-12-29T09:16:09;4.10;;;1.43;;
15142;SDS011;7672;50.834;6.286;2022-12-29T09:18:44;3.43;;;1.73;;
15142;SDS011;7672;50.834;6.286;2022-12-29T09:21:30;6.33;;;1.70;;
15142;SDS011;7672;50.834;6.286;2022-12-29T09:24:00;6.13;;;1.60;;
15142;SDS011;7672;50.834;6.286;2022-12-29T09:26:32;5.77;;;1.77;;
15142;SDS011;7672;50.834;6.286;2022-12-29T09:29:11;6.33;;;1.50;;
15142;SDS011;7672;50.834;6.286;2022-12-29T09:32:04;6.43;;;1.77;;
15142;SDS011;7672;50.834;6.286;2022-12-29T09:34:40;5.03;;;1.50;;
15142;SDS011;7672;50.834;6.286;2022-12-29T09:37:10;8.73;;;1.80;;
15142;SDS011;7672;50.834;6.286;2022-12-29T09:39:46;4.47;;;1.90;;
15142;SDS011;7672;50.834;6.286;2022-12-29T09:42:41;4.47;;;1.40;;
15142;SDS011;7672;50.834;6.286;2022-12-29T09:45:41;4.97;;;1.57;;
15142;SDS011;7672;50.834;6.286;2022-12-29T09:48:37;20.60;;;2.43;;
15142;SDS011;7672;50.834;6.286;2022-12-29T09:54:53;5.07;;;1.93;;
15142;SDS011;7672;50.834;6.286;2022-12-29T09:58:18;4.10;;;1.57;;
15142;SDS011;7672;50.834;6.286;2022-12-29T10:01:05;3.63;;;1.50;;
15142;SDS011;7672;50.834;6.286;2022-12-29T10:04:10;6.50;;;1.97;;
15142;SDS011;7672;50.834;6.286;2022-12-29T10:10:02;6.07;;;1.70;;
15142;SDS011;7672;50.834;6.286;2022-12-29T10:13:50;6.17;;;1.67;;
15142;SDS011;7672;50.834;6.286;2022-12-29T10:16:43;5.30;;;1.83;;
15142;SDS011;7672;50.834;6.286;2022-12-29T10:26:23;6.17;;;1.70;;
15142;SDS011;7672;50.834;6.286;2022-12-29T10:29:22;5.27;;;1.80;;
15142;SDS011;7672;50.834;6.286;2022-12-29T10:31:59;3.37;;;1.50;;
15142;SDS011;7672;50.834;6.286;2022-12-29T10:37:12;5.80;;;1.80;;
15142;SDS011;7672;50.834;6.286;2022-12-29T10:39:59;5.40;;;1.50;;
15142;SDS011;7672;50.834;6.286;2022-12-29T10:42:43;7.53;;;2.00;;
15142;SDS011;7672;50.834;6.286;2022-12-29T10:45:18;5.20;;;1.70;;
15142;SDS011;7672;50.834;6.286;2022-12-29T10:47:55;5.30;;;1.67;;
15142;SDS011;7672;50.834;6.286;2022-12-29T10:50:35;6.50;;;1.73;;
15142;SDS011;7672;50.834;6.286;2022-12-29T10:53:12;5.43;;;1.50;;
15142;SDS011;7672;50.834;6.286;2022-12-29T10:55:48;4.33;;;1.37;;
15142;SDS011;7672;50.834;6.286;2022-12-29T10:58:17;4.30;;;1.97;;
15142;SDS011;7672;50.834;6.286;2022-12-29T11:00:49;5.20;;;1.60;;
15142;SDS011;7672;50.834;6.286;2022-12-29T11:03:59;3.37;;;1.50;;
15142;SDS011;7672;50.834;6.286;2022-12-29T11:07:23;4.07;;;1.70;;
15142;SDS011;7672;50.834;6.286;2022-12-29T11:09:53;4.60;;;1.70;;
15142;SDS011;7672;50.834;6.286;2022-12-29T11:12:28;4.53;;;1.50;;
15142;SDS011;7672;50.834;6.286;2022-12-29T11:17:53;4.67;;;1.90;;
15142;SDS011;7672;50.834;6.286;2022-12-29T11:20:34;4.10;;;1.87;;
15142;SDS011;7672;50.834;6.286;2022-12-29T11:23:20;5.17;;;1.87;;
15142;SDS011;7672;50.834;6.286;2022-12-29T11:31:45;4.43;;;2.00;;
15142;SDS011;7672;50.834;6.286;2022-12-29T11:34:23;3.53;;;1.53;;
15142;SDS011;7672;50.834;6.286;2022-12-29T11:37:01;5.77;;;2.10;;
15142;SDS011;7672;50.834;6.286;2022-12-29T11:39:46;5.43;;;1.87;;
15142;SDS011;7672;50.834;6.286;2022-12-29T11:42:38;6.40;;;1.77;;
15142;SDS011;7672;50.834;6.286;2022-12-29T11:45:18;4.00;;;1.43;;
15142;SDS011;7672;50.834;6.286;2022-12-29T11:48:18;6.57;;;1.93;;
15142;SDS011;7672;50.834;6.286;2022-12-29T11:50:51;7.63;;;1.70;;
15142;SDS011;7672;50.834;6.286;2022-12-29T11:53:49;8.37;;;2.07;;
15142;SDS011;7672;50.834;6.286;2022-12-29T11:56:19;3.07;;;1.63;;
15142;SDS011;7672;50.834;6.286;2022-12-29T11:59:23;5.37;;;1.67;;
15142;SDS011;7672;50.834;6.286;2022-12-29T12:02:22;6.43;;;1.83;;
15142;SDS011;7672;50.834;6.286;2022-12-29T12:04:58;6.30;;;1.60;;
15142;SDS011;7672;50.834;6.286;2022-12-29T12:08:31;10.20;;;2.13;;
15142;SDS011;7672;50.834;6.286;2022-12-29T12:11:12;3.73;;;1.57;;
15142;SDS011;7672;50.834;6.286;2022-12-29T12:14:29;6.43;;;1.50;;
15142;SDS011;7672;50.834;6.286;2022-12-29T12:25:07;6.53;;;1.70;;
15142;SDS011;7672;50.834;6.286;2022-12-29T12:31:54;4.50;;;1.50;;
15142;SDS011;7672;50.834;6.286;2022-12-29T12:40:08;6.17;;;1.87;;
15142;SDS011;7672;50.834;6.286;2022-12-29T13:00:01;3.47;;;1.60;;
15142;SDS011;7672;50.834;6.286;2022-12-29T13:20:36;3.53;;;1.20;;
15142;SDS011;7672;50.834;6.286;2022-12-29T13:37:54;4.73;;;1.30;;
15142;SDS011;7672;50.834;6.286;2022-12-29T13:40:31;5.10;;;1.67;;
15142;SDS011;7672;50.834;6.286;2022-12-29T13:43:02;4.53;;;1.43;;
15142;SDS011;7672;50.834;6.286;2022-12-29T13:45:29;3.80;;;1.50;;
15142;SDS011;7672;50.834;6.286;2022-12-29T13:48:06;3.90;;;1.40;;
15142;SDS011;7672;50.834;6.286;2022-12-29T13:50:57;3.47;;;1.30;;
15142;SDS011;7672;50.834;6.286;2022-12-29T13:56:33;4.47;;;1.30;;
15142;SDS011;7672;50.834;6.286;2022-12-29T13:59:27;4.30;;;1.27;;
15142;SDS011;7672;50.834;6.286;2022-12-29T14:02:16;3.07;;;1.30;;
15142;SDS011;7672;50.834;6.286;2022-12-29T14:05:00;2.67;;;1.50;;
15142;SDS011;7672;50.834;6.286;2022-12-29T14:07:37;2.87;;;1.37;;
15142;SDS011;7672;50.834;6.286;2022-12-29T14:10:06;4.37;;;1.30;;
15142;SDS011;7672;50.834;6.286;2022-12-29T14:13:00;5.30;;;1.30;;
15142;SDS011;7672;50.834;6.286;2022-12-29T14:15:51;3.67;;;1.43;;
15142;SDS011;7672;50.834;6.286;2022-12-29T14:18:28;3.77;;;1.20;;
15142;SDS011;7672;50.834;6.286;2022-12-29T14:21:04;4.57;;;1.30;;
15142;SDS011;7672;50.834;6.286;2022-12-29T14:23:47;4.33;;;1.53;;
15142;SDS011;7672;50.834;6.286;2022-12-29T14:28:56;4.77;;;1.20;;
15142;SDS011;7672;50.834;6.286;2022-12-29T14:31:42;6.07;;;1.60;;
15142;SDS011;7672;50.834;6.286;2022-12-29T14:39:18;3.37;;;1.63;;
15142;SDS011;7672;50.834;6.286;2022-12-29T14:44:58;7.37;;;2.00;;
15142;SDS011;7672;50.834;6.286;2022-12-29T14:47:52;7.57;;;2.50;;
15142;SDS011;7672;50.834;6.286;2022-12-29T15:04:19;7.77;;;1.97;;
15142;SDS011;7672;50.834;6.286;2022-12-29T15:06:51;7.90;;;2.03;;
15142;SDS011;7672;50.834;6.286;2022-12-29T15:12:11;5.27;;;1.90;;
15142;SDS011;7672;50.834;6.286;2022-12-29T15:15:23;13.10;;;2.33;;
15142;SDS011;7672;50.834;6.286;2022-12-29T15:17:53;7.73;;;2.00;;
15142;SDS011;7672;50.834;6.286;2022-12-29T15:20:27;9.00;;;1.97;;
15142;SDS011;7672;50.834;6.286;2022-12-29T15:23:00;9.33;;;2.30;;
15142;SDS011;7672;50.834;6.286;2022-12-29T15:25:36;4.33;;;1.70;;
15142;SDS011;7672;50.834;6.286;2022-12-29T15:28:15;5.67;;;1.97;;
15142;SDS011;7672;50.834;6.286;2022-12-29T15:30:53;6.60;;;1.97;;
15142;SDS011;7672;50.834;6.286;2022-12-29T15:33:29;9.63;;;2.10;;
15142;SDS011;7672;50.834;6.286;2022-12-29T15:35:57;8.60;;;2.10;;
15142;SDS011;7672;50.834;6.286;2022-12-29T15:38:30;7.67;;;2.10;;
15142;SDS011;7672;50.834;6.286;2022-12-29T15:41:06;7.07;;;2.60;;
15142;SDS011;7672;50.834;6.286;2022-12-29T15:43:58;6.13;;;2.27;;
15142;SDS011;7672;50.834;6.286;2022-12-29T15:46:46;6.40;;;2.30;;
15142;SDS011;7672;50.834;6.286;2022-12-29T15:49:13;4.87;;;1.93;;
15142;SDS011;7672;50.834;6.286;2022-12-29T15:51:41;9.63;;;2.40;;
15142;SDS011;7672;50.834;6.286;2022-12-29T15:54:16;5.87;;;2.00;;
15142;SDS011;7672;50.834;6.286;2022-12-29T15:56:47;8.13;;;2.10;;
15142;SDS011;7672;50.834;6.286;2022-12-29T15:59:23;9.83;;;2.30;;
15142;SDS011;7672;50.834;6.286;2022-12-29T16:01:56;7.05;;;2.38;;
15142;SDS011;7672;50.834;6.286;2022-12-29T16:04:30;11.70;;;2.30;;
15142;SDS011;7672;50.834;6.286;2022-12-29T16:07:29;7.70;;;2.40;;
15142;SDS011;7672;50.834;6.286;2022-12-29T16:12:55;6.40;;;1.77;;
15142;SDS011;7672;50.834;6.286;2022-12-29T16:15:40;6.33;;;2.13;;
15142;SDS011;7672;50.834;6.286;2022-12-29T16:18:11;8.30;;;2.50;;
15142;SDS011;7672;50.834;6.286;2022-12-29T16:20:51;14.17;;;3.27;;
15142;SDS011;7672;50.834;6.286;2022-12-29T16:23:22;12.63;;;2.97;;
15142;SDS011;7672;50.834;6.286;2022-12-29T16:25:54;13.30;;;3.10;;
15142;SDS011;7672;50.834;6.286;2022-12-29T16:28:24;7.37;;;2.50;;
15142;SDS011;7672;50.834;6.286;2022-12-29T16:31:18;7.20;;;2.73;;
15142;SDS011;7672;50.834;6.286;2022-12-29T16:33:58;8.27;;;2.40;;
15142;SDS011;7672;50.834;6.286;2022-12-29T16:36:40;9.67;;;2.67;;
15142;SDS011;7672;50.834;6.286;2022-12-29T16:48:34;8.03;;;2.73;;
15142;SDS011;7672;50.834;6.286;2022-12-29T16:50:45;9.33;;;2.77;;
15142;SDS011;7672;50.834;6.286;2022-12-29T16:53:18;5.77;;;2.23;;
15142;SDS011;7672;50.834;6.286;2022-12-29T16:56:05;9.00;;;2.30;;
15142;SDS011;7672;50.834;6.286;2022-12-29T16:58:45;8.77;;;2.93;;
15142;SDS011;7672;50.834;6.286;2022-12-29T17:01:15;10.03;;;2.63;;
15142;SDS011;7672;50.834;6.286;2022-12-29T17:03:50;11.57;;;2.60;;
15142;SDS011;7672;50.834;6.286;2022-12-29T17:06:21;10.03;;;2.80;;
15142;SDS011;7672;50.834;6.286;2022-12-29T17:08:49;7.93;;;2.40;;
15142;SDS011;7672;50.834;6.286;2022-12-29T17:19:45;13.13;;;2.83;;
15142;SDS011;7672;50.834;6.286;2022-12-29T17:22:18;8.63;;;2.70;;
15142;SDS011;7672;50.834;6.286;2022-12-29T17:24:53;10.57;;;3.10;;
15142;SDS011;7672;50.834;6.286;2022-12-29T17:30:15;8.03;;;2.30;;
15142;SDS011;7672;50.834;6.286;2022-12-29T17:32:52;12.93;;;2.93;;
15142;SDS011;7672;50.834;6.286;2022-12-29T17:35:26;17.53;;;3.30;;
15142;SDS011;7672;50.834;6.286;2022-12-29T17:37:54;11.90;;;3.00;;
15142;SDS011;7672;50.834;6.286;2022-12-29T17:40:21;8.37;;;2.43;;
15142;SDS011;7672;50.834;6.286;2022-12-29T17:42:53;10.57;;;2.50;;
15142;SDS011;7672;50.834;6.286;2022-12-29T17:45:25;8.20;;;2.80;;
15142;SDS011;7672;50.834;6.286;2022-12-29T17:47:57;10.10;;;2.60;;
15142;SDS011;7672;50.834;6.286;2022-12-29T17:50:27;9.50;;;2.70;;
15142;SDS011;7672;50.834;6.286;2022-12-29T17:52:57;14.40;;;2.93;;
15142;SDS011;7672;50.834;6.286;2022-12-29T17:55:28;14.57;;;2.90;;
15142;SDS011;7672;50.834;6.286;2022-12-29T17:58:19;11.70;;;2.97;;
15142;SDS011;7672;50.834;6.286;2022-12-29T18:00:52;12.40;;;3.47;;
15142;SDS011;7672;50.834;6.286;2022-12-29T18:03:26;12.67;;;3.50;;
15142;SDS011;7672;50.834;6.286;2022-12-29T18:05:56;9.80;;;3.13;;
15142;SDS011;7672;50.834;6.286;2022-12-29T18:08:24;7.17;;;3.00;;
15142;SDS011;7672;50.834;6.286;2022-12-29T18:10:50;6.03;;;2.23;;
15142;SDS011;7672;50.834;6.286;2022-12-29T18:13:20;12.70;;;3.83;;
15142;SDS011;7672;50.834;6.286;2022-12-29T18:15:53;11.67;;;3.53;;
15142;SDS011;7672;50.834;6.286;2022-12-29T18:18:22;12.43;;;3.50;;
15142;SDS011;7672;50.834;6.286;2022-12-29T18:21:01;11.10;;;3.10;;
15142;SDS011;7672;50.834;6.286;2022-12-29T18:28:07;8.20;;;2.50;;
15142;SDS011;7672;50.834;6.286;2022-12-29T18:30:42;7.67;;;1.87;;
15142;SDS011;7672;50.834;6.286;2022-12-29T18:33:16;11.00;;;2.63;;
15142;SDS011;7672;50.834;6.286;2022-12-29T18:35:57;9.57;;;2.40;;
15142;SDS011;7672;50.834;6.286;2022-12-29T18:38:47;4.20;;;1.83;;
15142;SDS011;7672;50.834;6.286;2022-12-29T18:42:03;4.80;;;1.50;;
15142;SDS011;7672;50.834;6.286;2022-12-29T18:49:33;10.43;;;2.07;;
15142;SDS011;7672;50.834;6.286;2022-12-29T18:56:41;7.10;;;2.13;;
15142;SDS011;7672;50.834;6.286;2022-12-29T18:59:49;10.70;;;2.07;;
15142;SDS011;7672;50.834;6.286;2022-12-29T19:06:36;7.03;;;2.03;;
15142;SDS011;7672;50.834;6.286;2022-12-29T19:12:48;6.40;;;2.20;;
15142;SDS011;7672;50.834;6.286;2022-12-29T19:15:49;9.37;;;2.07;;
15142;SDS011;7672;50.834;6.286;2022-12-29T19:18:29;5.40;;;1.97;;
15142;SDS011;7672;50.834;6.286;2022-12-29T19:21:15;7.00;;;1.57;;
15142;SDS011;7672;50.834;6.286;2022-12-29T19:24:04;7.53;;;2.07;;
15142;SDS011;7672;50.834;6.286;2022-12-29T19:27:28;10.73;;;2.00;;
15142;SDS011;7672;50.834;6.286;2022-12-29T19:30:02;8.90;;;2.60;;
15142;SDS011;7672;50.834;6.286;2022-12-29T19:32:49;10.47;;;2.30;;
15142;SDS011;7672;50.834;6.286;2022-12-29T19:35:18;3.90;;;2.13;;
15142;SDS011;7672;50.834;6.286;2022-12-29T19:37:47;9.40;;;2.80;;
15142;SDS011;7672;50.834;6.286;2022-12-29T19:40:18;6.90;;;2.17;;
15142;SDS011;7672;50.834;6.286;2022-12-29T19:42:48;6.57;;;2.30;;
15142;SDS011;7672;50.834;6.286;2022-12-29T19:45:16;7.70;;;1.97;;
15142;SDS011;7672;50.834;6.286;2022-12-29T19:48:02;10.37;;;2.20;;